createdAt,value
2014-07-26T00:00:17.408Z,0
2014-07-26T00:00:35.644Z,0
2014-07-26T00:00:53.878Z,0
2014-07-26T00:01:12.113Z,0
2014-07-26T00:01:30.318Z,0
2014-07-26T00:01:48.552Z,0
2014-07-26T00:02:06.771Z,0
2014-07-26T00:02:24.992Z,0
2014-07-26T00:02:43.211Z,0
2014-07-26T00:03:01.429Z,0
2014-07-26T00:03:19.679Z,0
2014-07-26T00:03:37.899Z,0
2014-07-26T00:03:56.118Z,0
2014-07-26T00:04:14.337Z,0
2014-07-26T00:04:32.573Z,0
2014-07-26T00:04:50.792Z,0
2014-07-26T00:05:09.057Z,0
2014-07-26T00:05:27.294Z,0
2014-07-26T00:05:45.497Z,0
2014-07-26T00:06:03.747Z,0
2014-07-26T00:06:21.936Z,0
2014-07-26T00:06:40.186Z,0
2014-07-26T00:06:58.421Z,0
2014-07-26T00:07:16.608Z,0
2014-07-26T00:07:34.860Z,0
2014-07-26T00:07:53.063Z,0
2014-07-26T00:08:11.298Z,0
2014-07-26T00:08:29.518Z,0
2014-07-26T00:08:47.753Z,0
2014-07-26T00:09:06.003Z,0
2014-07-26T00:09:24.208Z,0
2014-07-26T00:09:42.427Z,0
2014-07-26T00:10:00.677Z,0
2014-07-26T00:10:18.895Z,0
2014-07-26T00:10:37.085Z,0
2014-07-26T00:10:55.335Z,0
2014-07-26T00:11:13.569Z,0
2014-07-26T00:11:31.806Z,0
2014-07-26T00:11:50.009Z,0
2014-07-26T00:12:08.212Z,0
2014-07-26T00:12:26.480Z,0
2014-07-26T00:12:44.714Z,0
2014-07-26T00:13:02.964Z,0
2014-07-26T00:13:21.183Z,0
2014-07-26T00:13:39.419Z,0
2014-07-26T00:13:57.653Z,0
2014-07-26T00:14:15.857Z,0
2014-07-26T00:14:34.093Z,0
2014-07-26T00:14:52.312Z,0
2014-07-26T00:15:10.546Z,0
2014-07-26T00:15:28.750Z,0
2014-07-26T00:15:47.000Z,0
2014-07-26T00:16:05.266Z,0
2014-07-26T00:16:23.471Z,0
2014-07-26T00:16:41.690Z,0
2014-07-26T00:16:59.924Z,0
2014-07-26T00:17:18.237Z,0
2014-07-26T00:17:36.457Z,0
2014-07-26T00:17:54.645Z,0
2014-07-26T00:18:12.864Z,0
2014-07-26T00:18:31.117Z,0
2014-07-26T00:18:49.335Z,0
2014-07-26T00:19:07.554Z,0
2014-07-26T00:19:25.806Z,0
2014-07-26T00:19:44.025Z,0
2014-07-26T00:20:02.259Z,0
2014-07-26T00:20:20.494Z,0
2014-07-26T00:20:38.714Z,0
2014-07-26T00:20:56.964Z,0
2014-07-26T00:21:15.199Z,0
2014-07-26T00:21:33.388Z,0
2014-07-26T00:21:51.623Z,0
2014-07-26T00:22:09.841Z,0
2014-07-26T00:22:28.060Z,0
2014-07-26T00:22:46.312Z,0
2014-07-26T00:23:04.734Z,0
2014-07-26T00:23:37.125Z,0
2014-07-26T00:23:55.330Z,0
2014-07-26T00:24:13.533Z,0
2014-07-26T00:24:31.798Z,0
2014-07-26T00:24:50.005Z,0
2014-07-26T00:25:08.223Z,0
2014-07-26T00:25:26.426Z,0
2014-07-26T00:25:44.645Z,0
2014-07-26T00:26:02.913Z,0
2014-07-26T00:26:35.303Z,0
2014-07-26T00:26:53.491Z,0
2014-07-26T00:27:11.727Z,0
2014-07-26T00:27:29.977Z,0
2014-07-26T00:27:48.180Z,0
2014-07-26T00:28:06.431Z,0
2014-07-26T00:28:24.650Z,0
2014-07-26T00:28:42.885Z,0
2014-07-26T00:29:01.103Z,0
2014-07-26T00:29:19.309Z,0
2014-07-26T00:29:37.528Z,0
2014-07-26T00:29:55.778Z,0
2014-07-26T00:30:13.999Z,0
2014-07-26T00:30:32.202Z,0
2014-07-26T00:30:50.421Z,0
2014-07-26T00:31:08.671Z,0
2014-07-26T00:31:26.891Z,0
2014-07-26T00:31:45.109Z,0
2014-07-26T00:32:03.328Z,0
2014-07-26T00:32:21.581Z,0
2014-07-26T00:32:39.815Z,0
2014-07-26T00:32:58.065Z,0
2014-07-26T00:33:16.269Z,0
2014-07-26T00:33:34.505Z,0
2014-07-26T00:33:52.724Z,0
2014-07-26T00:34:11.067Z,0
2014-07-26T00:34:29.288Z,0
2014-07-26T00:34:47.538Z,0
2014-07-26T00:35:05.741Z,0
2014-07-26T00:35:24.118Z,0
2014-07-26T00:35:42.321Z,0
2014-07-26T00:36:00.571Z,0
2014-07-26T00:36:18.790Z,0
2014-07-26T00:36:36.994Z,0
2014-07-26T00:36:55.229Z,0
2014-07-26T00:37:13.479Z,0
2014-07-26T00:37:31.699Z,0
2014-07-26T00:37:49.903Z,0
2014-07-26T00:38:08.699Z,0
2014-07-26T00:38:26.920Z,0
2014-07-26T00:38:45.139Z,0
2014-07-26T00:39:03.358Z,0
2014-07-26T00:39:21.576Z,0
2014-07-26T00:39:39.828Z,0
2014-07-26T00:39:58.047Z,0
2014-07-26T00:40:16.235Z,0
2014-07-26T00:40:34.471Z,0
2014-07-26T00:40:52.721Z,0
2014-07-26T00:41:10.955Z,0
2014-07-26T00:41:29.192Z,0
2014-07-26T00:41:47.426Z,0
2014-07-26T00:42:05.629Z,0
2014-07-26T00:42:23.850Z,0
2014-07-26T00:42:42.084Z,0
2014-07-26T00:43:00.334Z,0
2014-07-26T00:43:18.553Z,0
2014-07-26T00:43:36.774Z,0
2014-07-26T00:43:54.977Z,0
2014-07-26T00:44:13.211Z,0
2014-07-26T00:44:31.432Z,0
2014-07-26T00:44:49.667Z,0
2014-07-26T00:45:07.901Z,0
2014-07-26T00:45:26.122Z,0
2014-07-26T00:45:44.340Z,0
2014-07-26T00:46:02.559Z,0
2014-07-26T00:46:20.809Z,0
2014-07-26T00:46:38.999Z,0
2014-07-26T00:46:57.217Z,0
2014-07-26T00:47:15.467Z,0
2014-07-26T00:47:33.657Z,0
2014-07-26T00:47:51.891Z,0
2014-07-26T00:48:10.126Z,0
2014-07-26T00:48:28.345Z,0
2014-07-26T00:48:46.595Z,0
2014-07-26T00:49:04.799Z,0
2014-07-26T00:49:23.017Z,0
2014-07-26T00:49:41.270Z,0
2014-07-26T00:49:59.489Z,0
2014-07-26T00:50:17.708Z,0
2014-07-26T00:50:35.912Z,0
2014-07-26T00:50:54.178Z,0
2014-07-26T00:51:12.365Z,0
2014-07-26T00:51:30.599Z,0
2014-07-26T00:51:48.852Z,0
2014-07-26T00:52:07.071Z,0
2014-07-26T00:52:25.290Z,0
2014-07-26T00:52:43.495Z,0
2014-07-26T00:53:01.745Z,0
2014-07-26T00:53:19.948Z,0
2014-07-26T00:53:38.183Z,0
2014-07-26T00:53:56.434Z,0
2014-07-26T00:54:14.652Z,0
2014-07-26T00:54:32.855Z,0
2014-07-26T00:55:23.499Z,0
2014-07-26T00:55:41.718Z,0
2014-07-26T00:55:59.937Z,0
2014-07-26T00:56:18.143Z,0
2014-07-26T00:56:36.393Z,0
2014-07-26T00:56:54.580Z,0
2014-07-26T00:57:12.832Z,0
2014-07-26T00:57:31.035Z,0
2014-07-26T00:57:49.285Z,0
2014-07-26T00:58:07.504Z,0
2014-07-26T00:58:25.958Z,0
2014-07-26T00:58:44.161Z,0
2014-07-26T00:59:02.411Z,0
2014-07-26T00:59:20.648Z,0
2014-07-26T00:59:38.866Z,0
2014-07-26T00:59:57.085Z,0
2014-07-26T01:00:15.320Z,0
2014-07-26T01:00:33.541Z,0
2014-07-26T01:00:51.776Z,0
2014-07-26T01:01:09.963Z,0
2014-07-26T01:01:28.214Z,0
2014-07-26T01:02:00.605Z,0
2014-07-26T01:02:18.839Z,0
2014-07-26T01:02:37.060Z,0
2014-07-26T01:02:55.263Z,0
2014-07-26T01:03:13.482Z,0
2014-07-26T01:03:31.703Z,0
2014-07-26T01:03:49.937Z,0
2014-07-26T01:04:08.156Z,0
2014-07-26T01:04:26.408Z,0
2014-07-26T01:04:44.642Z,0
2014-07-26T01:05:02.830Z,0
2014-07-26T01:05:21.064Z,0
2014-07-26T01:05:39.316Z,0
2014-07-26T01:05:57.535Z,0
2014-07-26T01:06:15.738Z,0
2014-07-26T01:06:33.959Z,0
2014-07-26T01:06:52.209Z,0
2014-07-26T01:07:10.427Z,0
2014-07-26T01:07:28.664Z,0
2014-07-26T01:07:46.882Z,0
2014-07-26T01:08:05.101Z,0
2014-07-26T01:08:23.322Z,0
2014-07-26T01:08:41.525Z,0
2014-07-26T01:08:59.775Z,0
2014-07-26T01:09:18.009Z,0
2014-07-26T01:09:36.230Z,0
2014-07-26T01:09:54.449Z,0
2014-07-26T01:10:12.683Z,0
2014-07-26T01:10:30.888Z,0
2014-07-26T01:10:49.107Z,0
2014-07-26T01:11:07.357Z,0
2014-07-26T01:11:25.578Z,0
2014-07-26T01:11:43.797Z,0
2014-07-26T01:12:02.015Z,0
2014-07-26T01:12:20.234Z,0
2014-07-26T01:12:38.471Z,0
2014-07-26T01:12:56.674Z,0
2014-07-26T01:13:15.002Z,0
2014-07-26T01:13:33.253Z,0
2014-07-26T01:13:51.472Z,0
2014-07-26T01:14:09.675Z,0
2014-07-26T01:14:27.895Z,0
2014-07-26T01:14:46.130Z,0
2014-07-26T01:15:04.349Z,0
2014-07-26T01:15:22.601Z,0
2014-07-26T01:15:40.819Z,0
2014-07-26T01:15:59.054Z,0
2014-07-26T01:16:17.288Z,0
2014-07-26T01:16:35.524Z,0
2014-07-26T01:16:53.743Z,0
2014-07-26T01:17:11.993Z,0
2014-07-26T01:17:30.261Z,0
2014-07-26T01:17:48.448Z,0
2014-07-26T01:18:06.683Z,0
2014-07-26T01:18:24.917Z,0
2014-07-26T01:18:43.122Z,0
2014-07-26T01:19:01.357Z,0
2014-07-26T01:19:19.575Z,0
2014-07-26T01:19:37.827Z,0
2014-07-26T01:20:10.218Z,0
2014-07-26T01:20:28.452Z,0
2014-07-26T01:20:46.673Z,0
2014-07-26T01:21:04.876Z,0
2014-07-26T01:21:23.111Z,0
2014-07-26T01:21:41.331Z,0
2014-07-26T01:21:59.550Z,0
2014-07-26T01:22:31.925Z,0
2014-07-26T01:22:50.147Z,0
2014-07-26T01:23:08.412Z,0
2014-07-26T01:23:26.678Z,0
2014-07-26T01:23:44.882Z,0
2014-07-26T01:24:03.117Z,0
2014-07-26T01:24:21.320Z,0
2014-07-26T01:24:39.585Z,0
2014-07-26T01:24:57.776Z,0
2014-07-26T01:25:15.995Z,0
2014-07-26T01:25:34.245Z,0
2014-07-26T01:25:52.508Z,0
2014-07-26T01:26:10.743Z,0
2014-07-26T01:26:28.961Z,0
2014-07-26T01:26:47.165Z,0
2014-07-26T01:27:05.464Z,0
2014-07-26T01:27:23.698Z,0
2014-07-26T01:27:41.932Z,0
2014-07-26T01:28:00.181Z,0
2014-07-26T01:28:18.431Z,0
2014-07-26T01:28:36.666Z,0
2014-07-26T01:28:54.885Z,0
2014-07-26T01:29:13.167Z,0
2014-07-26T01:29:31.354Z,0
2014-07-26T01:29:49.604Z,0
2014-07-26T01:30:07.876Z,0
2014-07-26T01:30:26.079Z,0
2014-07-26T01:30:44.298Z,0
2014-07-26T01:31:02.516Z,0
2014-07-26T01:31:20.770Z,0
2014-07-26T01:31:38.973Z,0
2014-07-26T01:31:57.192Z,0
2014-07-26T01:32:15.443Z,0
2014-07-26T01:32:33.693Z,0
2014-07-26T01:32:51.896Z,0
2014-07-26T01:33:10.146Z,0
2014-07-26T01:33:28.383Z,0
2014-07-26T01:33:46.602Z,0
2014-07-26T01:34:04.805Z,0
2014-07-26T01:34:23.087Z,0
2014-07-26T01:34:41.337Z,0
2014-07-26T01:34:59.556Z,0
2014-07-26T01:35:17.775Z,0
2014-07-26T01:35:36.007Z,0
2014-07-26T01:35:54.257Z,0
2014-07-26T01:36:12.491Z,0
2014-07-26T01:36:30.701Z,0
2014-07-26T01:36:48.904Z,0
2014-07-26T01:37:07.123Z,0
2014-07-26T01:37:25.364Z,0
2014-07-26T01:37:43.583Z,0
2014-07-26T01:38:01.833Z,0
2014-07-26T01:38:20.052Z,0
2014-07-26T01:38:38.294Z,0
2014-07-26T01:38:56.529Z,0
2014-07-26T01:39:14.732Z,0
2014-07-26T01:39:47.129Z,0
2014-07-26T01:40:05.333Z,0
2014-07-26T01:40:23.588Z,0
2014-07-26T01:40:41.791Z,0
2014-07-26T01:41:00.009Z,0
2014-07-26T01:41:18.259Z,0
2014-07-26T01:41:36.482Z,0
2014-07-26T01:41:54.701Z,0
2014-07-26T01:42:12.935Z,0
2014-07-26T01:42:31.174Z,0
2014-07-26T01:43:21.752Z,0
2014-07-26T01:43:39.975Z,0
2014-07-26T01:43:58.209Z,0
2014-07-26T01:44:16.443Z,0
2014-07-26T01:44:34.682Z,0
2014-07-26T01:44:52.916Z,0
2014-07-26T01:45:11.135Z,0
2014-07-26T01:45:29.341Z,0
2014-07-26T01:45:47.560Z,0
2014-07-26T01:46:05.778Z,0
2014-07-26T01:46:24.030Z,0
2014-07-26T01:46:42.249Z,0
2014-07-26T01:47:00.484Z,0
2014-07-26T01:47:18.702Z,0
2014-07-26T01:47:36.909Z,0
2014-07-26T01:47:55.159Z,0
2014-07-26T01:48:13.378Z,0
2014-07-26T01:48:31.583Z,0
2014-07-26T01:48:49.818Z,0
2014-07-26T01:49:08.036Z,0
2014-07-26T01:49:26.240Z,0
2014-07-26T01:49:44.508Z,0
2014-07-26T01:50:02.743Z,0
2014-07-26T01:50:20.961Z,0
2014-07-26T01:50:39.183Z,0
2014-07-26T01:50:57.433Z,0
2014-07-26T01:51:15.636Z,0
2014-07-26T01:51:33.902Z,0
2014-07-26T01:51:52.123Z,0
2014-07-26T01:52:10.310Z,0
2014-07-26T01:52:28.529Z,0
2014-07-26T01:52:46.766Z,0
2014-07-26T01:53:05.016Z,0
2014-07-26T01:53:23.251Z,0
2014-07-26T01:53:41.469Z,0
2014-07-26T01:53:59.674Z,0
2014-07-26T01:54:17.909Z,0
2014-07-26T01:54:36.143Z,0
2014-07-26T01:54:54.348Z,0
2014-07-26T01:55:12.598Z,0
2014-07-26T01:55:30.786Z,0
2014-07-26T01:55:49.020Z,0
2014-07-26T01:56:07.241Z,0
2014-07-26T01:56:25.460Z,0
2014-07-26T01:56:43.710Z,0
2014-07-26T01:57:01.900Z,0
2014-07-26T01:57:20.119Z,0
2014-07-26T01:57:38.385Z,0
2014-07-26T01:57:56.572Z,0
2014-07-26T01:58:14.808Z,0
2014-07-26T01:58:33.121Z,0
2014-07-26T01:58:51.308Z,0
2014-07-26T01:59:09.529Z,0
2014-07-26T01:59:27.764Z,0
2014-07-26T01:59:45.998Z,0
2014-07-26T02:00:04.201Z,0
2014-07-26T02:00:22.437Z,0
2014-07-26T02:00:40.781Z,0
2014-07-26T02:00:59.000Z,0
2014-07-26T02:01:17.221Z,0
2014-07-26T02:01:35.439Z,0
2014-07-26T02:01:53.705Z,0
2014-07-26T02:02:11.924Z,0
2014-07-26T02:02:30.113Z,0
2014-07-26T02:02:48.332Z,0
2014-07-26T02:03:06.566Z,0
2014-07-26T02:03:24.787Z,0
2014-07-26T02:03:43.006Z,0
2014-07-26T02:04:01.225Z,0
2014-07-26T02:04:19.490Z,0
2014-07-26T02:04:37.710Z,0
2014-07-26T02:04:55.913Z,0
2014-07-26T02:05:14.132Z,0
2014-07-26T02:05:32.368Z,0
2014-07-26T02:05:50.587Z,0
2014-07-26T02:06:08.790Z,0
2014-07-26T02:06:27.027Z,0
2014-07-26T02:06:45.277Z,0
2014-07-26T02:07:03.480Z,0
2014-07-26T02:07:21.714Z,0
2014-07-26T02:07:39.950Z,0
2014-07-26T02:07:58.169Z,0
2014-07-26T02:08:16.388Z,0
2014-07-26T02:08:34.593Z,0
2014-07-26T02:08:52.812Z,0
2014-07-26T02:09:11.062Z,0
2014-07-26T02:09:29.283Z,0
2014-07-26T02:09:47.501Z,0
2014-07-26T02:10:19.892Z,0
2014-07-26T02:10:38.113Z,0
2014-07-26T02:10:56.331Z,0
2014-07-26T02:11:14.628Z,0
2014-07-26T02:11:32.834Z,0
2014-07-26T02:11:51.069Z,0
2014-07-26T02:12:09.319Z,0
2014-07-26T02:12:27.522Z,0
2014-07-26T02:12:45.790Z,0
2014-07-26T02:13:04.008Z,0
2014-07-26T02:13:22.227Z,0
2014-07-26T02:13:40.447Z,0
2014-07-26T02:13:58.666Z,0
2014-07-26T02:14:16.916Z,0
2014-07-26T02:14:35.166Z,0
2014-07-26T02:14:53.433Z,0
2014-07-26T02:15:11.621Z,0
2014-07-26T02:15:29.839Z,0
2014-07-26T02:15:48.108Z,0
2014-07-26T02:16:06.311Z,0
2014-07-26T02:16:24.530Z,0
2014-07-26T02:16:42.733Z,0
2014-07-26T02:17:01.063Z,0
2014-07-26T02:17:19.313Z,0
2014-07-26T02:17:37.532Z,0
2014-07-26T02:17:55.767Z,0
2014-07-26T02:18:13.986Z,0
2014-07-26T02:18:32.220Z,0
2014-07-26T02:18:50.424Z,0
2014-07-26T02:19:08.645Z,0
2014-07-26T02:19:26.895Z,0
2014-07-26T02:19:45.098Z,0
2014-07-26T02:20:03.349Z,0
2014-07-26T02:20:21.553Z,0
2014-07-26T02:20:39.803Z,0
2014-07-26T02:20:58.037Z,0
2014-07-26T02:21:16.227Z,0
2014-07-26T02:21:34.446Z,0
2014-07-26T02:21:52.665Z,0
2014-07-26T02:22:10.933Z,0
2014-07-26T02:22:29.136Z,0
2014-07-26T02:22:47.401Z,0
2014-07-26T02:23:05.620Z,0
2014-07-26T02:23:23.856Z,0
2014-07-26T02:23:42.106Z,0
2014-07-26T02:24:00.325Z,0
2014-07-26T02:24:18.593Z,0
2014-07-26T02:24:36.812Z,0
2014-07-26T02:24:55.030Z,0
2014-07-26T02:25:13.233Z,0
2014-07-26T02:25:31.485Z,0
2014-07-26T02:25:49.689Z,0
2014-07-26T02:26:07.907Z,0
2014-07-26T02:26:26.127Z,0
2014-07-26T02:26:58.502Z,0
2014-07-26T02:27:16.752Z,0
2014-07-26T02:27:34.958Z,0
2014-07-26T02:27:53.177Z,0
2014-07-26T02:28:11.396Z,0
2014-07-26T02:28:29.648Z,0
2014-07-26T02:28:47.882Z,0
2014-07-26T02:29:06.085Z,0
2014-07-26T02:29:24.320Z,0
2014-07-26T02:29:42.540Z,0
2014-07-26T02:30:00.743Z,0
2014-07-26T02:30:18.993Z,0
2014-07-26T02:30:37.230Z,0
2014-07-26T02:30:55.417Z,0
2014-07-26T02:31:13.652Z,0
2014-07-26T02:31:31.886Z,0
2014-07-26T02:31:50.091Z,0
2014-07-26T02:32:08.326Z,0
2014-07-26T02:32:26.560Z,0
2014-07-26T02:32:44.781Z,0
2014-07-26T02:33:03.015Z,0
2014-07-26T02:33:21.203Z,0
2014-07-26T02:33:39.421Z,0
2014-07-26T02:33:57.658Z,0
2014-07-26T02:34:15.861Z,0
2014-07-26T02:34:34.111Z,0
2014-07-26T02:34:52.316Z,0
2014-07-26T02:35:10.566Z,0
2014-07-26T02:35:28.785Z,0
2014-07-26T02:35:46.988Z,0
2014-07-26T02:36:05.302Z,0
2014-07-26T02:36:23.521Z,0
2014-07-26T02:36:41.740Z,0
2014-07-26T02:36:59.992Z,0
2014-07-26T02:37:18.211Z,0
2014-07-26T02:37:36.445Z,0
2014-07-26T02:37:54.648Z,0
2014-07-26T02:38:12.884Z,0
2014-07-26T02:38:31.072Z,0
2014-07-26T02:38:49.322Z,0
2014-07-26T02:39:07.543Z,0
2014-07-26T02:39:25.746Z,0
2014-07-26T02:39:43.980Z,0
2014-07-26T02:40:02.215Z,0
2014-07-26T02:40:20.451Z,0
2014-07-26T02:40:38.670Z,0
2014-07-26T02:40:56.857Z,0
2014-07-26T02:41:47.484Z,0
2014-07-26T02:42:05.719Z,0
2014-07-26T02:42:23.908Z,0
2014-07-26T02:42:42.127Z,0
2014-07-26T02:43:00.346Z,0
2014-07-26T02:43:18.611Z,0
2014-07-26T02:43:36.832Z,0
2014-07-26T02:43:55.082Z,0
2014-07-26T02:44:13.301Z,0
2014-07-26T02:44:31.521Z,0
2014-07-26T02:44:49.725Z,0
2014-07-26T02:45:07.975Z,0
2014-07-26T02:45:26.211Z,0
2014-07-26T02:45:44.430Z,0
2014-07-26T02:46:02.633Z,0
2014-07-26T02:46:20.852Z,0
2014-07-26T02:46:39.104Z,0
2014-07-26T02:46:57.322Z,0
2014-07-26T02:47:15.541Z,0
2014-07-26T02:47:33.840Z,0
2014-07-26T02:47:52.090Z,0
2014-07-26T02:48:10.277Z,0
2014-07-26T02:48:28.498Z,0
2014-07-26T02:48:46.717Z,0
2014-07-26T02:49:04.967Z,0
2014-07-26T02:49:23.188Z,0
2014-07-26T02:49:41.391Z,0
2014-07-26T02:49:59.625Z,0
2014-07-26T02:50:17.875Z,0
2014-07-26T02:50:36.096Z,0
2014-07-26T02:50:54.299Z,0
2014-07-26T02:51:12.502Z,0
2014-07-26T02:51:30.770Z,0
2014-07-26T02:51:48.973Z,0
2014-07-26T02:52:07.207Z,0
2014-07-26T02:52:25.459Z,0
2014-07-26T02:52:43.709Z,0
2014-07-26T02:53:01.928Z,0
2014-07-26T02:53:34.289Z,0
2014-07-26T02:53:52.524Z,0
2014-07-26T02:54:10.743Z,0
2014-07-26T02:54:28.995Z,0
2014-07-26T02:54:47.213Z,0
2014-07-26T02:55:05.416Z,0
2014-07-26T02:55:23.637Z,0
2014-07-26T02:55:41.872Z,0
2014-07-26T02:56:00.106Z,0
2014-07-26T02:56:18.293Z,0
2014-07-26T02:56:36.530Z,0
2014-07-26T02:56:54.749Z,0
2014-07-26T02:57:12.999Z,0
2014-07-26T02:57:31.203Z,0
2014-07-26T02:57:49.421Z,0
2014-07-26T02:58:07.656Z,0
2014-07-26T02:58:25.877Z,0
2014-07-26T02:58:44.111Z,0
2014-07-26T02:59:02.330Z,0
2014-07-26T02:59:20.548Z,0
2014-07-26T02:59:38.816Z,0
2014-07-26T02:59:57.019Z,0
2014-07-26T03:00:15.254Z,0
2014-07-26T03:00:33.506Z,0
2014-07-26T03:00:51.709Z,0
2014-07-26T03:01:09.943Z,0
2014-07-26T03:01:28.162Z,0
2014-07-26T03:01:46.415Z,0
2014-07-26T03:02:04.618Z,0
2014-07-26T03:02:22.868Z,0
2014-07-26T03:02:41.120Z,0
2014-07-26T03:02:59.370Z,0
2014-07-26T03:03:17.573Z,0
2014-07-26T03:03:35.823Z,0
2014-07-26T03:03:54.044Z,0
2014-07-26T03:04:12.247Z,0
2014-07-26T03:04:30.466Z,0
2014-07-26T03:04:48.717Z,0
2014-07-26T03:05:06.935Z,0
2014-07-26T03:05:25.139Z,0
2014-07-26T03:05:43.357Z,0
2014-07-26T03:06:01.609Z,0
2014-07-26T03:06:19.844Z,0
2014-07-26T03:06:38.062Z,0
2014-07-26T03:06:56.269Z,0
2014-07-26T03:07:14.503Z,0
2014-07-26T03:07:32.722Z,0
2014-07-26T03:07:50.926Z,0
2014-07-26T03:08:09.145Z,0
2014-07-26T03:08:27.379Z,0
2014-07-26T03:08:45.598Z,0
2014-07-26T03:09:03.804Z,0
2014-07-26T03:09:22.038Z,0
2014-07-26T03:09:40.273Z,0
2014-07-26T03:09:58.492Z,0
2014-07-26T03:10:16.680Z,0
2014-07-26T03:10:34.899Z,0
2014-07-26T03:10:53.133Z,0
2014-07-26T03:11:11.369Z,0
2014-07-26T03:11:29.572Z,0
2014-07-26T03:11:47.822Z,0
2014-07-26T03:12:06.044Z,0
2014-07-26T03:12:24.279Z,0
2014-07-26T03:12:42.466Z,0
2014-07-26T03:13:01.200Z,0
2014-07-26T03:13:19.451Z,0
2014-07-26T03:13:37.670Z,0
2014-07-26T03:13:55.873Z,0
2014-07-26T03:14:14.095Z,0
2014-07-26T03:14:32.329Z,0
2014-07-26T03:14:50.626Z,0
2014-07-26T03:15:08.814Z,0
2014-07-26T03:15:27.050Z,0
2014-07-26T03:15:45.285Z,0
2014-07-26T03:16:03.503Z,0
2014-07-26T03:16:35.896Z,0
2014-07-26T03:16:54.115Z,0
2014-07-26T03:17:12.349Z,0
2014-07-26T03:17:30.553Z,0
2014-07-26T03:17:48.788Z,0
2014-07-26T03:18:07.006Z,0
2014-07-26T03:18:25.243Z,0
2014-07-26T03:18:43.477Z,0
2014-07-26T03:19:01.711Z,0
2014-07-26T03:19:19.930Z,0
2014-07-26T03:19:38.168Z,0
2014-07-26T03:19:56.386Z,0
2014-07-26T03:20:14.605Z,0
2014-07-26T03:20:32.873Z,0
2014-07-26T03:20:51.091Z,0
2014-07-26T03:21:09.295Z,0
2014-07-26T03:21:27.513Z,0
2014-07-26T03:21:45.733Z,0
2014-07-26T03:22:04.077Z,0
2014-07-26T03:22:22.280Z,0
2014-07-26T03:22:40.516Z,0
2014-07-26T03:22:58.735Z,0
2014-07-26T03:23:16.969Z,0
2014-07-26T03:23:35.173Z,0
2014-07-26T03:23:53.394Z,0
2014-07-26T03:24:11.660Z,0
2014-07-26T03:24:29.879Z,0
2014-07-26T03:24:48.084Z,0
2014-07-26T03:25:06.303Z,0
2014-07-26T03:25:24.537Z,0
2014-07-26T03:25:42.771Z,0
2014-07-26T03:26:00.976Z,0
2014-07-26T03:26:19.211Z,0
2014-07-26T03:26:37.430Z,0
2014-07-26T03:26:55.713Z,0
2014-07-26T03:27:13.947Z,0
2014-07-26T03:27:32.166Z,0
2014-07-26T03:27:50.400Z,0
2014-07-26T03:28:08.621Z,0
2014-07-26T03:28:26.809Z,0
2014-07-26T03:28:45.043Z,0
2014-07-26T03:29:03.295Z,0
2014-07-26T03:29:21.514Z,0
2014-07-26T03:29:39.717Z,0
2014-07-26T03:29:57.936Z,0
2014-07-26T03:30:16.172Z,0
2014-07-26T03:30:34.422Z,0
2014-07-26T03:30:52.656Z,0
2014-07-26T03:31:10.861Z,0
2014-07-26T03:31:29.096Z,0
2014-07-26T03:31:47.299Z,0
2014-07-26T03:32:05.533Z,0
2014-07-26T03:32:23.754Z,0
2014-07-26T03:32:41.973Z,0
2014-07-26T03:33:00.207Z,0
2014-07-26T03:33:18.444Z,0
2014-07-26T03:33:36.662Z,0
2014-07-26T03:33:54.865Z,0
2014-07-26T03:34:13.069Z,0
2014-07-26T03:34:31.306Z,0
2014-07-26T03:34:49.540Z,0
2014-07-26T03:35:07.759Z,0
2014-07-26T03:35:25.979Z,0
2014-07-26T03:35:44.229Z,1
2014-07-26T03:36:02.448Z,0
2014-07-26T03:36:20.651Z,1
2014-07-26T03:36:38.887Z,1
2014-07-26T03:36:57.137Z,1
2014-07-26T03:37:15.356Z,1
2014-07-26T03:37:33.593Z,1
2014-07-26T03:37:51.796Z,1
2014-07-26T03:38:10.062Z,1
2014-07-26T03:38:28.297Z,1
2014-07-26T03:38:46.516Z,1
2014-07-26T03:39:04.750Z,1
2014-07-26T03:39:22.969Z,1
2014-07-26T03:39:41.174Z,1
2014-07-26T03:39:59.393Z,1
2014-07-26T03:40:17.612Z,1
2014-07-26T03:40:35.834Z,1
2014-07-26T03:40:54.099Z,1
2014-07-26T03:41:12.287Z,1
2014-07-26T03:41:44.678Z,1
2014-07-26T03:42:02.913Z,1
2014-07-26T03:42:53.540Z,1
2014-07-26T03:43:11.758Z,2
2014-07-26T03:43:29.977Z,2
2014-07-26T03:43:48.198Z,2
2014-07-26T03:44:06.448Z,2
2014-07-26T03:44:24.667Z,2
2014-07-26T03:44:42.885Z,2
2014-07-26T03:45:01.107Z,2
2014-07-26T03:45:19.342Z,2
2014-07-26T03:45:37.576Z,2
2014-07-26T03:45:55.796Z,2
2014-07-26T03:46:14.014Z,2
2014-07-26T03:46:46.389Z,2
2014-07-26T03:47:04.642Z,3
2014-07-26T03:47:55.252Z,3
2014-07-26T03:48:13.441Z,3
2014-07-26T03:48:31.660Z,3
2014-07-26T03:48:49.910Z,3
2014-07-26T03:49:08.131Z,4
2014-07-26T03:49:26.350Z,4
2014-07-26T03:49:44.568Z,4
2014-07-26T03:50:02.818Z,4
2014-07-26T03:50:21.039Z,4
2014-07-26T03:50:39.242Z,4
2014-07-26T03:50:57.461Z,5
2014-07-26T03:51:15.681Z,5
2014-07-26T03:51:33.931Z,5
2014-07-26T03:51:52.134Z,5
2014-07-26T03:52:10.353Z,5
2014-07-26T03:52:28.590Z,5
2014-07-26T03:52:46.824Z,5
2014-07-26T03:53:05.043Z,5
2014-07-26T03:53:23.295Z,6
2014-07-26T03:53:41.514Z,6
2014-07-26T03:53:59.733Z,6
2014-07-26T03:54:17.936Z,6
2014-07-26T03:54:36.141Z,7
2014-07-26T03:54:54.406Z,6
2014-07-26T03:55:12.625Z,7
2014-07-26T03:55:30.830Z,7
2014-07-26T03:55:49.080Z,7
2014-07-26T03:56:07.299Z,7
2014-07-26T03:56:25.520Z,8
2014-07-26T03:56:43.739Z,8
2014-07-26T03:57:01.942Z,8
2014-07-26T03:57:20.160Z,8
2014-07-26T03:57:38.412Z,8
2014-07-26T03:57:56.631Z,9
2014-07-26T03:58:14.881Z,8
2014-07-26T03:58:33.102Z,9
2014-07-26T03:58:51.321Z,9
2014-07-26T03:59:09.524Z,9
2014-07-26T03:59:27.760Z,10
2014-07-26T03:59:45.963Z,10
2014-07-26T04:00:04.198Z,10
2014-07-26T04:00:22.432Z,11
2014-07-26T04:00:40.668Z,11
2014-07-26T04:00:58.950Z,11
2014-07-26T04:01:17.184Z,12
2014-07-26T04:01:35.404Z,12
2014-07-26T04:01:53.669Z,12
2014-07-26T04:02:11.873Z,12
2014-07-26T04:02:30.125Z,13
2014-07-26T04:02:48.328Z,13
2014-07-26T04:03:06.546Z,13
2014-07-26T04:03:24.798Z,13
2014-07-26T04:03:43.017Z,13
2014-07-26T04:04:01.236Z,14
2014-07-26T04:04:19.486Z,14
2014-07-26T04:04:37.691Z,14
2014-07-26T04:05:10.082Z,15
2014-07-26T04:05:28.316Z,15
2014-07-26T04:05:46.569Z,15
2014-07-26T04:06:04.788Z,15
2014-07-26T04:06:22.975Z,15
2014-07-26T04:06:41.226Z,15
2014-07-26T04:06:59.429Z,15
2014-07-26T04:07:17.664Z,16
2014-07-26T04:07:35.883Z,16
2014-07-26T04:07:54.119Z,16
2014-07-26T04:08:12.369Z,16
2014-07-26T04:08:30.603Z,16
2014-07-26T04:08:48.793Z,17
2014-07-26T04:09:07.012Z,17
2014-07-26T04:09:25.262Z,17
2014-07-26T04:09:43.496Z,17
2014-07-26T04:10:01.702Z,17
2014-07-26T04:10:19.921Z,17
2014-07-26T04:10:38.140Z,17
2014-07-26T04:10:56.407Z,17
2014-07-26T04:11:14.626Z,17
2014-07-26T04:11:32.829Z,18
2014-07-26T04:11:51.079Z,18
2014-07-26T04:12:09.300Z,18
2014-07-26T04:12:27.519Z,18
2014-07-26T04:12:45.753Z,18
2014-07-26T04:13:03.988Z,18
2014-07-26T04:13:22.316Z,19
2014-07-26T04:13:40.520Z,18
2014-07-26T04:13:58.754Z,19
2014-07-26T04:14:17.006Z,19
2014-07-26T04:14:35.225Z,19
2014-07-26T04:14:53.506Z,19
2014-07-26T04:15:11.712Z,19
2014-07-26T04:15:29.978Z,20
2014-07-26T04:15:48.290Z,20
2014-07-26T04:16:06.509Z,20
2014-07-26T04:16:24.761Z,20
2014-07-26T04:16:43.027Z,20
2014-07-26T04:17:01.214Z,20
2014-07-26T04:17:19.450Z,20
2014-07-26T04:17:37.685Z,20
2014-07-26T04:18:10.825Z,21
2014-07-26T04:18:29.093Z,21
2014-07-26T04:18:47.281Z,21
2014-07-26T04:19:05.515Z,22
2014-07-26T04:19:23.751Z,22
2014-07-26T04:19:41.954Z,22
2014-07-26T04:20:00.204Z,23
2014-07-26T04:20:18.392Z,23
2014-07-26T04:20:36.627Z,24
2014-07-26T04:20:54.877Z,24
2014-07-26T04:21:13.080Z,25
2014-07-26T04:21:31.348Z,25
2014-07-26T04:22:03.723Z,26
2014-07-26T04:22:21.942Z,27
2014-07-26T04:22:40.194Z,27
2014-07-26T04:22:58.381Z,27
2014-07-26T04:23:16.647Z,27
2014-07-26T04:23:34.868Z,27
2014-07-26T04:23:53.071Z,27
2014-07-26T04:24:11.290Z,27
2014-07-26T04:24:29.526Z,27
2014-07-26T04:24:47.745Z,27
2014-07-26T04:25:05.995Z,27
2014-07-26T04:25:24.201Z,27
2014-07-26T04:25:42.451Z,27
2014-07-26T04:26:00.685Z,26
2014-07-26T04:26:18.904Z,27
2014-07-26T04:26:37.140Z,26
2014-07-26T04:26:55.359Z,27
2014-07-26T04:27:13.640Z,26
2014-07-26T04:27:31.845Z,27
2014-07-26T04:27:50.064Z,27
2014-07-26T04:28:08.314Z,27
2014-07-26T04:28:26.534Z,27
2014-07-26T04:28:44.784Z,28
2014-07-26T04:29:03.003Z,28
2014-07-26T04:29:35.396Z,28
2014-07-26T04:29:53.631Z,29
2014-07-26T04:30:11.865Z,29
2014-07-26T04:30:30.068Z,29
2014-07-26T04:30:48.320Z,29
2014-07-26T04:31:06.570Z,29
2014-07-26T04:31:24.773Z,29
2014-07-26T04:31:43.009Z,29
2014-07-26T04:32:01.227Z,29
2014-07-26T04:32:19.446Z,29
2014-07-26T04:32:37.712Z,29
2014-07-26T04:33:28.308Z,30
2014-07-26T04:33:46.542Z,30
2014-07-26T04:34:18.920Z,30
2014-07-26T04:34:37.170Z,31
2014-07-26T04:34:55.389Z,31
2014-07-26T04:35:13.594Z,32
2014-07-26T04:35:31.828Z,32
2014-07-26T04:35:50.047Z,33